Airport View

Enter AWOS ICAO identifier for current METAR.

ex. KFNL

KBAB 100258Z AUTO 21005KT 10SM CLR 32/13 A2978 RMK AO2 SLP087 T03240131 56004 $

10 Jul 2020 03:45

Other Area AWOS: KMYV - KLHM - KAUN - KGOO

TAF KBAB 100300Z 1003/1109 17006KT 9999 SKC QNH2977INS BECMG 1017/1018 22009KT 9999 SKC QNH2985INS BECMG 1103/1104 16006KT 9999 SKC QNH2985INS TX37/1023Z TN16/1013Z